Etusivu
METAR-TAF:

METAR-TAF

Lentoasemat :

Nueces County Airport

Robstown, Texas, Yhdysvallat

Leveyspiiri: 27-46-42N, Pituuspiiri: 097-41-25W, korkeus merenpinnasta: 24 m

Tämänhetkinen sää

Tämä raportti tehtiin 10 minuuttia sitten, kello 19.15 UTC
Tuuli 21 kn etelästä/kaakosta puuskistuen 26 kn:hen
Lämpötila 28°C
Kosteus 62%
Ilmanpaine 1016 hPa
Näkyvyys: 16.1 km
Hajonneita pilviä 2900 ft:n korkeudessa
Hajonneita pilviä 3300 ft:n korkeudessa

METAR: KRBO 251915Z AUTO 15021G26KT 10SM BKN029 BKN033 28/20 A3001 RMK AO2 T02750203

Aika: 13:25 (19:25 UTC)


TAF: puuttuu

Säähavainnot ja -ennusteet yli 4000 lentoasemalta (METAR- ja TAF-raportit).

Käytössä olevat sääasemat on merkitty karttaan keltaisilla ja punaisilla pisteillä.

Aseta hiiri pisteen päälle nähdäksesi sääaseman nimen.

Klikkaa sitten nähdäksesi säähavainnot ja -ennusteet.

Kartan vaihtaminen: klikkaa mustalla rastilla varustettuja vihreitä pisteitä, niin voit zoomata sisään; viivalla varustettua vihreää pistettä, niin voit zoomata ulos tai vihreitä nuolia, niin pääset viereisille kartoille.


METAR-TAF: